Aeroporto :
LOGIN :

Iscrizione | Disclaimer

   EN    FR    IT 

 










Sommario :    VFR   VFR Marginale   IFR   IFR Intensivo   IFR Molto Intensivo
Visibilità : 
Base nubi : 
>= 8 km
>= 3000ft
5 / 8 km
1000 / 3000 ft
1500m / 5 km
500 / 1000 ft
800 / 1500m
200 / 500 ft
< 800m
< 200 ft
Simboli :   Temporali  Nebbia  Neve Forte  Precipitazioni Forti  Vento > 20 kt
SIGMETs :   Varie  Temporali  Ghiacco  Turbolenza  Onda orograficha  Ceneri Vulcaniche






- Altitudine del aeroporto : 425 ft
- Codice IATA : DTM


EDLW - Dortmund

ULTIMO METAR :
  • 060950Z 19016KT 9999 -DZ OVC026 04/M00 Q1011

METARs OBSOLETI :
  • 060920Z 19016KT 9999 -RA BKN020 OVC024 04/00 Q1012
  • 060850Z 19016KT 9999 OVC028 04/M01 Q1012
  • 060820Z 20015KT 9999 OVC021 04/M01 Q1012
  • 060750Z 20015KT 9999 OVC022 04/M00 Q1012
  • 060720Z 19013KT 9999 OVC023 04/00 Q1012

TAF TAF EDLW
Valido dal 06 a 06 ore il 07 a 06 ore UTC


060500Z 0606/0706 21015G25KT 9999 SCT020
TEMPO 0618/0703 22020G30KT
BECMG 0621/0624 BKN012



MetMap, La meteo Aeronautica in un colpo d'occhio ! - Copyright ORBIFLY Dicembre 2007 - Disclaimer

ORBIFLY MET'MAP TEAM :

Programmazione e sviluppo : Alexandra Zaïnal
Concezione : Baudouin d'Aumeries
Aiuto per la programmazione : Marc-Olivier Méhu
Supporto tecnico e logistico : Manuel Goepfert
Aiuto per la traduzione : Arnaldo La Scala

Contatto : metmap@orbifly.com




FONTI E CREDITI :

   NOAA